Hauptseite
METAR-TAF:

METAR-TAF

Flughäfen :

Flughafen Genf

Genf, Schweiz

Breite: 46-15N, Länge: 006-08E, Höhe: 420 m

Beobachtung

Neuester Wetterbericht von vor 12 Minuten, um 20:50 UTC
Wind 1 kt aus unterschiedlichen Richtungen
Temperatur 14°C
Luftfeuchtigkeit 51%
Luftdruck 1021 hPa
Sichtweite 10 km oder mehr
keine Wolken unter 1500 m und keine Kumulonimbus oder Gewitterwolken

METAR: LSGG 202050Z VRB01KT CAVOK 14/04 Q1021 NOSIG

Zeit: 23:02 (21:02 UTC)

Prognose

Neuester Wetterbericht von vor 37 Minuten, um 20:25 UTC
Gültige Prognose vom 20 um 21 UTC bis 22 um 03 UTC
Wind 3 kt aus unterschiedlichen Richtungen
Sichtweite 10 km oder mehr
keine Wolken unter 1500 m und keine Kumulonimbus oder Gewitterwolken

TAF: LSGG 202025Z 2021/2203 VRB03KT CAVOK TX22/2115Z TN08/2105Z

Wetterbeobachtungen und Prognosen von mehr als 4000 Flughäfen (METAR und TAF Bericht).

Die verfügbaren Stationen werden durch gelbe und rote Markierungen auf der Karte dargestellt.

Führen Sie die Maus auf sie, um den Namen der Station zu sehen.

Darauf klicken, um die Beobachtung von Wetterbeobachtungen und Prognosen zu sehen.

Um die Karte zu ändern : klicken Sie auf den grünen Tasten mit einem schwarzen Kreuz Zum Vergrößern, auf den grünen Button mit einem Gedankenstrich zu verkleinern, oder auf die grünen Pfeile für benachbarte Karten.


METAR-TAF: